Time;durP1;ratioP1;P1;durP2;ratioP2;P2;SDS_P1;SDS_P2;PMS_P1;PMS_P2;Temp;Humidity;BMP_temperature;BMP_pressure;BME280_temperature;BME280_humidity;BME280_pressure;Samples;Min_cycle;Max_cycle;Signal;HPM_P1;HPM_P2
2022/05/15 00:02:21;;;;;;;5.30;4.78;;;;;;;22.73;52.54;99544.06;5092011;28;20576;-86
2022/05/15 00:04:47;;;;;;;6.00;5.50;;;;;;;22.48;52.73;99508.88;5091931;28;20110;-86
2022/05/15 00:07:12;;;;;;;5.68;5.18;;;;;;;22.96;52.54;99574.41;5073920;28;20028;-86
2022/05/15 00:09:39;;;;;;;8.07;5.10;;;;;;;21.69;52.98;99371.53;5092163;28;20062;-86
2022/05/15 00:12:05;;;;;;;5.53;5.00;;;;;;;22.89;53.14;99581.88;5092901;28;20039;-86
2022/05/15 00:14:32;;;;;;;6.15;5.22;;;;;;;22.65;53.09;99527.56;5096723;28;20511;-86
2022/05/15 00:16:58;;;;;;;5.53;4.72;;;;;;;22.20;53.20;99458.84;5074579;28;20027;-86
2022/05/15 00:19:24;;;;;;;5.40;4.90;;;;;;;22.20;53.20;99483.03;5092035;28;20028;-87
2022/05/15 00:21:49;;;;;;;5.90;4.72;;;;;;;22.77;53.01;99547.84;5073884;28;20039;-86
2022/05/15 00:24:14;;;;;;;6.00;4.63;;;;;;;22.39;53.11;99488.88;5073652;28;20028;-86
2022/05/15 00:26:40;;;;;;;6.95;4.82;;;;;;;21.95;53.15;99421.75;5091847;28;20032;-87
2022/05/15 00:29:06;;;;;;;4.95;4.55;;;;;;;22.86;53.09;99569.75;5092276;28;20484;-86
2022/05/15 00:31:32;;;;;;;5.63;4.72;;;;;;;22.49;53.33;99524.75;5092041;28;20028;-86
2022/05/15 00:33:58;;;;;;;5.80;4.30;;;;;;;22.23;53.49;99497.84;5073880;28;20031;-86
2022/05/15 00:36:23;;;;;;;5.18;4.68;;;;;;;22.67;53.75;99596.22;5073983;28;20492;-86
2022/05/15 00:38:49;;;;;;;5.68;4.55;;;;;;;22.09;53.71;99505.53;5073516;28;20059;-87
2022/05/15 00:41:15;;;;;;;5.68;4.68;;;;;;;22.02;53.93;99521.81;5091530;28;20032;-86
2022/05/15 00:43:43;;;;;;;15.02;5.90;;;;;;;22.58;54.85;99589.69;5073696;28;20020;-87
2022/05/15 00:46:30;;;;;;;33.38;10.93;;;;;;;22.16;56.86;99558.03;5074470;28;20035;-91
2022/05/15 00:48:59;;;;;;;11.27;6.50;;;;;;;22.32;57.36;99602.06;5074791;28;20032;-91
2022/05/15 00:51:53;;;;;;;12.27;6.30;;;;;;;22.23;57.87;99597.38;5074546;28;20020;-90
2022/05/15 00:54:48;;;;;;;12.80;5.97;;;;;;;22.07;58.58;99605.28;5057252;28;20481;-88
2022/05/15 00:57:21;;;;;;;8.10;5.75;;;;;;;21.76;58.49;99587.13;5082711;28;20036;-88
2022/05/15 00:59:52;;;;;;;6.72;5.63;;;;;;;21.96;59.04;99625.00;5091732;28;20024;-88
2022/05/15 01:02:19;;;;;;;7.40;5.60;;;;;;;21.68;58.95;99611.75;5073377;28;20032;-87
2022/05/15 01:04:46;;;;;;;5.68;4.97;;;;;;;21.36;59.42;99563.19;5094575;28;20039;-87
2022/05/15 01:07:11;;;;;;;7.60;5.53;;;;;;;21.24;59.52;99557.94;5095818;28;20016;-87
2022/05/15 01:09:37;;;;;;;6.22;5.13;;;;;;;21.70;59.83;99631.94;5077695;28;20090;-87
2022/05/15 01:12:03;;;;;;;6.47;5.57;;;;;;;21.74;59.96;99643.00;5077497;28;20024;-87
2022/05/15 01:14:31;;;;;;;5.30;4.80;;;;;;;21.34;59.84;99601.03;5077900;28;20023;-88
2022/05/15 01:16:57;;;;;;;10.07;5.60;;;;;;;21.51;59.88;99631.38;5077974;28;20027;-90
2022/05/15 01:19:36;;;;;;;10.15;5.97;;;;;;;20.42;60.56;99426.25;5078417;28;20416;-91
2022/05/15 01:22:03;;;;;;;9.77;5.82;;;;;;;21.56;61.16;99611.84;5078675;28;20024;-91
2022/05/15 01:24:30;;;;;;;5.57;5.00;;;;;;;21.20;61.29;99599.72;5078615;28;20016;-91
2022/05/15 01:26:57;;;;;;;5.75;5.25;;;;;;;21.22;61.91;99584.19;5078047;28;20023;-90
2022/05/15 01:29:36;;;;;;;6.40;5.15;;;;;;;20.51;62.16;99499.88;5077470;28;20016;-90
2022/05/15 01:32:04;;;;;;;6.03;5.00;;;;;;;19.93;62.73;99412.53;5077630;28;20035;-89
2022/05/15 01:34:30;;;;;;;5.85;4.65;;;;;;;20.12;62.64;99438.06;5078098;28;20023;-89
2022/05/15 01:36:57;;;;;;;7.15;5.28;;;;;;;21.13;62.49;99593.72;5077839;28;20027;-90
2022/05/15 01:39:23;;;;;;;4.38;3.85;;;;;;;20.23;62.49;99476.59;5077870;28;20044;-90
2022/05/15 01:41:48;;;;;;;4.10;3.70;;;;;;;20.20;62.54;99475.22;5077750;28;20517;-89
2022/05/15 01:44:14;;;;;;;4.28;3.88;;;;;;;20.79;62.53;99574.91;5096113;28;20071;-89
2022/05/15 01:46:39;;;;;;;7.45;3.80;;;;;;;20.93;62.33;99575.44;5095686;28;20028;-89
2022/05/15 01:49:06;;;;;;;5.78;4.03;;;;;;;20.38;62.39;99509.03;5077149;28;20028;-88
2022/05/15 01:51:33;;;;;;;7.45;4.47;;;;;;;20.41;62.84;99484.44;5077487;28;20030;-88
2022/05/15 01:54:01;;;;;;;4.93;4.43;;;;;;;21.05;62.66;99589.56;5077332;28;20016;-89
2022/05/15 01:56:27;;;;;;;6.90;4.85;;;;;;;20.19;62.83;99445.97;5095007;28;20027;-88
2022/05/15 01:58:53;;;;;;;5.32;4.85;;;;;;;20.17;62.91;99451.56;5076935;28;20105;-88
2022/05/15 02:01:19;;;;;;;5.97;5.38;;;;;;;21.06;63.11;99582.34;5076795;28;20028;-87
2022/05/15 02:03:45;;;;;;;5.93;5.45;;;;;;;20.88;63.28;99565.44;5076987;28;20035;-88
2022/05/15 02:06:10;;;;;;;6.15;5.18;;;;;;;21.02;63.63;99587.38;5094835;28;20028;-87
2022/05/15 02:08:36;;;;;;;6.82;5.97;;;;;;;19.52;63.35;99352.03;5077020;28;20031;-88
2022/05/15 02:11:03;;;;;;;7.50;5.72;;;;;;;20.91;63.41;99564.94;5094964;28;20077;-87
2022/05/15 02:13:29;;;;;;;6.15;5.50;;;;;;;20.09;63.31;99432.38;5094624;28;20043;-87
2022/05/15 02:15:54;;;;;;;6.53;5.82;;;;;;;20.02;63.30;99423.66;5093646;28;20489;-87
2022/05/15 02:18:20;;;;;;;6.75;6.07;;;;;;;20.58;63.38;99528.16;5076685;28;20566;-87
2022/05/15 02:20:45;;;;;;;7.10;6.15;;;;;;;20.36;63.55;99510.31;5076593;28;20512;-87
2022/05/15 02:23:10;;;;;;;7.15;6.45;;;;;;;20.49;63.69;99523.44;5076762;28;20028;-87
2022/05/15 02:25:37;;;;;;;6.72;6.03;;;;;;;20.40;63.28;99490.03;5094470;28;20111;-87
2022/05/15 02:28:03;;;;;;;6.28;5.78;;;;;;;20.92;63.49;99576.50;5076109;28;20414;-87
2022/05/15 02:30:29;;;;;;;7.50;6.80;;;;;;;20.05;63.56;99444.63;5076082;28;20024;-87
2022/05/15 02:32:54;;;;;;;7.32;6.55;;;;;;;20.96;64.00;99606.34;5076151;28;20024;-87
2022/05/15 02:35:20;;;;;;;6.45;5.95;;;;;;;20.01;63.56;99441.59;5093942;28;20019;-87
2022/05/15 02:37:47;;;;;;;7.35;6.38;;;;;;;20.70;63.83;99554.09;5075940;28;20032;-87
2022/05/15 02:40:14;;;;;;;6.60;6.00;;;;;;;19.65;63.88;99376.69;5075258;28;20435;-87
2022/05/15 02:42:39;;;;;;;6.75;6.15;;;;;;;20.63;63.81;99543.53;5075867;28;20466;-87
2022/05/15 02:45:06;;;;;;;7.38;6.68;;;;;;;21.00;63.84;99588.69;5094126;28;20032;-87
2022/05/15 02:47:32;;;;;;;6.97;6.30;;;;;;;20.81;63.92;99563.97;5094376;28;20119;-87
2022/05/15 02:52:41;;;;;;;7.97;6.70;;;;;;;21.00;64.46;99594.06;5093991;28;20035;-87
2022/05/15 02:55:08;;;;;;;8.20;7.40;;;;;;;21.03;64.17;99590.88;5076345;28;20020;-87
2022/05/15 02:57:33;;;;;;;8.00;7.20;;;;;;;20.36;64.21;99480.81;5094333;28;20028;-87
2022/05/15 02:59:59;;;;;;;7.13;6.53;;;;;;;20.80;63.93;99567.69;5094064;28;20081;-87
2022/05/15 03:02:24;;;;;;;8.55;7.10;;;;;;;20.65;63.91;99545.97;5093871;28;20020;-87
2022/05/15 03:04:51;;;;;;;8.82;7.40;;;;;;;20.34;63.89;99490.97;5093685;28;20520;-87
2022/05/15 03:07:17;;;;;;;7.78;6.97;;;;;;;20.97;63.74;99599.91;5093816;28;20024;-87
2022/05/15 03:09:43;;;;;;;10.10;7.47;;;;;;;20.04;63.75;99473.28;5093360;28;20499;-87
2022/05/15 03:12:08;;;;;;;7.32;6.57;;;;;;;20.38;63.96;99510.88;5075422;28;20423;-87
2022/05/15 03:14:34;;;;;;;8.60;7.75;;;;;;;18.88;64.03;99293.28;5075618;28;20416;-87
2022/05/15 03:16:59;;;;;;;7.45;6.70;;;;;;;20.28;63.81;99543.69;5093884;28;20035;-87
2022/05/15 03:19:25;;;;;;;9.38;7.32;;;;;;;20.12;63.97;99489.00;5093855;28;20031;-86
2022/05/15 03:21:52;;;;;;;7.32;6.63;;;;;;;20.14;63.95;99492.25;5093639;28;20102;-87
2022/05/15 03:24:17;;;;;;;8.45;6.95;;;;;;;20.31;63.56;99511.03;5075128;28;20024;-86
2022/05/15 03:26:46;;;;;;;8.95;7.30;;;;;;;19.55;63.52;99405.16;5075026;28;20081;-87
2022/05/15 03:29:14;;;;;;;7.72;6.95;;;;;;;20.35;63.70;99524.78;5074928;28;20081;-86
2022/05/15 03:31:40;;;;;;;8.00;6.88;;;;;;;20.80;63.60;99591.81;5092892;28;20103;-87
2022/05/15 03:34:13;;;;;;;7.40;6.47;;;;;;;18.64;63.40;99263.13;5092906;28;20032;-87
2022/05/15 03:36:43;;;;;;;8.93;7.13;;;;;;;20.79;63.43;99591.00;5074817;28;20028;-87
2022/05/15 03:39:09;;;;;;;8.15;6.75;;;;;;;20.75;63.61;99587.19;5092880;28;20047;-87
2022/05/15 03:41:36;;;;;;;7.10;6.40;;;;;;;20.78;63.70;99583.22;5092791;28;20501;-86
2022/05/15 03:44:03;;;;;;;7.38;6.50;;;;;;;19.07;63.23;99333.25;5092680;28;20032;-87
2022/05/15 03:46:28;;;;;;;7.63;6.35;;;;;;;20.66;63.23;99569.88;5092817;28;20024;-87
2022/05/15 03:48:54;;;;;;;6.38;5.75;;;;;;;20.05;63.31;99485.63;5092762;28;20085;-86
2022/05/15 03:51:20;;;;;;;6.30;5.63;;;;;;;20.86;63.32;99586.31;5092661;28;20493;-86
2022/05/15 03:53:46;;;;;;;6.05;5.18;;;;;;;20.45;63.30;99520.44;5092485;28;20039;-86
2022/05/15 03:56:12;;;;;;;5.90;5.40;;;;;;;20.17;62.94;99482.91;5092608;28;20024;-87
2022/05/15 03:58:38;;;;;;;5.75;5.25;;;;;;;20.08;62.81;99457.56;5074268;28;20084;-87
2022/05/15 04:01:05;;;;;;;5.28;4.88;;;;;;;20.96;63.17;99590.22;5092372;28;20429;-87
2022/05/15 04:03:30;;;;;;;8.77;6.43;;;;;;;20.11;63.38;99463.25;5092482;28;20460;-87
2022/05/15 04:05:57;;;;;;;5.70;5.13;;;;;;;19.83;63.69;99417.72;5073899;28;20170;-87
2022/05/15 04:08:23;;;;;;;6.15;5.55;;;;;;;20.14;63.63;99470.00;5074070;28;20035;-87
2022/05/15 04:10:48;;;;;;;6.38;5.80;;;;;;;20.87;63.65;99600.56;5092144;28;20432;-86
2022/05/15 04:13:14;;;;;;;9.68;6.53;;;;;;;20.52;63.32;99522.97;5073753;28;20031;-87
2022/05/15 04:15:39;;;;;;;6.18;5.47;;;;;;;20.45;63.21;99519.63;5092230;28;20458;-87
2022/05/15 04:18:06;;;;;;;6.47;5.88;;;;;;;20.99;63.09;99592.44;5091891;28;20035;-86
2022/05/15 04:20:32;;;;;;;5.35;4.85;;;;;;;21.04;62.73;99598.69;5091953;28;20503;-87
2022/05/15 04:22:58;;;;;;;6.65;5.28;;;;;;;19.35;62.39;99320.69;5091977;28;20130;-86
2022/05/15 04:25:23;;;;;;;4.97;4.47;;;;;;;21.11;61.98;99599.34;5092075;28;20556;-87
2022/05/15 04:27:49;;;;;;;4.95;4.18;;;;;;;20.06;61.80;99459.66;5092188;28;20032;-86
2022/05/15 04:30:22;;;;;;;6.47;4.88;;;;;;;20.88;61.90;99592.28;5073722;28;20478;-87
2022/05/15 04:32:47;;;;;;;6.22;4.72;;;;;;;20.23;61.76;99480.09;5091490;28;20035;-86
2022/05/15 04:35:13;;;;;;;6.55;5.00;;;;;;;20.97;61.99;99594.53;5091387;28;20024;-87
2022/05/15 04:37:39;;;;;;;6.22;5.13;;;;;;;20.82;61.88;99569.09;5091212;28;20031;-86
2022/05/15 04:40:07;;;;;;;7.50;5.78;;;;;;;21.09;61.91;99598.75;5091282;28;20056;-87
2022/05/15 04:42:33;;;;;;;6.22;5.60;;;;;;;20.92;61.61;99571.94;5073714;28;20024;-86
2022/05/15 04:44:58;;;;;;;6.65;4.72;;;;;;;20.38;61.62;99486.75;5073534;28;20016;-86
2022/05/15 04:47:24;;;;;;;7.28;5.40;;;;;;;20.85;61.37;99547.13;5091575;28;20031;-87
2022/05/15 04:49:51;;;;;;;6.90;5.95;;;;;;;20.12;61.67;99450.66;5091243;28;20016;-87
2022/05/15 04:52:16;;;;;;;6.10;4.90;;;;;;;19.87;61.45;99381.34;5091289;28;20024;-87
2022/05/15 04:54:41;;;;;;;5.13;4.63;;;;;;;19.84;60.98;99371.91;5091506;28;20112;-87
2022/05/15 04:57:07;;;;;;;6.40;4.55;;;;;;;20.27;60.98;99467.00;5091536;28;20020;-87
2022/05/15 04:59:32;;;;;;;5.50;4.78;;;;;;;21.37;61.09;99605.09;5092074;28;20036;-87
2022/05/15 05:01:58;;;;;;;6.25;4.65;;;;;;;21.03;60.82;99561.34;5073812;28;20561;-87
2022/05/15 05:04:24;;;;;;;6.70;4.50;;;;;;;20.04;60.85;99390.19;5092091;28;20030;-87
2022/05/15 05:06:50;;;;;;;4.57;4.18;;;;;;;20.56;61.05;99460.53;5073977;28;20024;-86
2022/05/15 05:09:15;;;;;;;6.10;4.40;;;;;;;20.65;60.75;99482.38;5074116;28;20035;-86
2022/05/15 05:11:41;;;;;;;6.40;4.53;;;;;;;20.91;60.71;99554.19;5091886;28;20032;-86
2022/05/15 05:14:07;;;;;;;5.65;4.75;;;;;;;20.28;60.86;99426.53;5091566;28;20032;-87
2022/05/15 05:16:33;;;;;;;5.95;4.53;;;;;;;20.50;61.05;99453.47;5091280;28;20542;-87
2022/05/15 05:19:00;;;;;;;5.40;4.28;;;;;;;21.43;60.82;99604.94;5091376;28;20032;-87
2022/05/15 05:21:25;;;;;;;4.30;3.90;;;;;;;21.08;60.55;99542.63;5092161;28;20080;-87
2022/05/15 05:23:51;;;;;;;5.47;4.47;;;;;;;21.66;60.00;99620.06;5093201;28;20032;-87
2022/05/15 05:26:16;;;;;;;5.15;4.65;;;;;;;20.79;60.15;99481.00;5086306;28;20024;-87
2022/05/15 05:28:42;;;;;;;6.35;4.28;;;;;;;21.40;60.06;99562.44;5106356;28;20004;-86
2022/05/15 05:31:08;;;;;;;5.30;4.47;;;;;;;21.27;59.65;99552.06;5112542;28;20031;-87
2022/05/15 05:33:33;;;;;;;5.13;4.00;;;;;;;21.23;59.69;99532.13;5107076;28;20032;-86
2022/05/15 05:35:59;;;;;;;7.45;4.60;;;;;;;21.92;59.83;99620.38;5091409;28;20021;-86
2022/05/15 05:38:24;;;;;;;6.35;4.13;;;;;;;21.66;59.10;99597.75;5091037;28;20568;-87
2022/05/15 05:40:50;;;;;;;6.60;4.47;;;;;;;22.01;58.83;99635.00;5091214;28;20028;-87
2022/05/15 05:43:15;;;;;;;4.95;4.47;;;;;;;22.07;59.41;99631.34;5073141;28;20098;-87
2022/05/15 05:45:41;;;;;;;9.40;4.70;;;;;;;21.61;58.80;99573.50;5073200;28;20032;-86
2022/05/15 05:48:07;;;;;;;4.90;4.40;;;;;;;22.09;57.53;99621.97;5091423;28;20058;-86
2022/05/15 05:50:33;;;;;;;4.88;4.38;;;;;;;21.90;57.54;99620.63;5092521;28;20020;-87
2022/05/15 05:52:59;;;;;;;5.53;4.55;;;;;;;22.22;57.03;99633.41;5076731;28;20024;-87
2022/05/15 05:55:25;;;;;;;6.68;4.00;;;;;;;20.98;56.78;99432.44;5094922;28;20103;-87
2022/05/15 05:57:51;;;;;;;6.32;4.63;;;;;;;22.01;56.43;99579.34;5076818;28;20489;-87
2022/05/15 06:00:26;;;;;;;5.15;4.20;;;;;;;22.35;55.81;99639.22;5094474;28;20024;-86
2022/05/15 06:02:51;;;;;;;6.70;4.50;;;;;;;22.38;54.93;99627.97;5094523;28;20039;-87
2022/05/15 06:05:17;;;;;;;5.60;4.47;;;;;;;21.08;54.40;99422.63;5094380;28;20020;-86
2022/05/15 06:07:42;;;;;;;5.80;4.25;;;;;;;22.41;54.19;99642.78;5076284;28;20416;-86
2022/05/15 06:10:10;;;;;;;7.57;4.15;;;;;;;20.73;53.89;99380.03;5094422;28;20066;-86
2022/05/15 06:12:36;;;;;;;4.38;3.97;;;;;;;21.22;53.81;99431.13;5101713;28;20012;-86
2022/05/15 06:15:02;;;;;;;8.25;4.90;;;;;;;21.67;53.60;99519.56;5117819;28;20028;-86
2022/05/15 06:17:29;;;;;;;8.45;5.05;;;;;;;22.27;53.46;99576.97;5088046;28;20024;-86
2022/05/15 06:19:55;;;;;;;5.53;4.50;;;;;;;21.54;53.43;99476.94;5079998;28;20039;-87
2022/05/15 06:22:21;;;;;;;8.13;5.05;;;;;;;22.60;53.31;99627.91;5095084;28;20488;-86
2022/05/15 06:24:47;;;;;;;5.75;4.78;;;;;;;21.39;53.14;99431.09;5077187;28;20020;-87
2022/05/15 06:27:14;;;;;;;8.65;5.57;;;;;;;22.62;52.87;99625.78;5095174;28;20081;-86
2022/05/15 06:29:41;;;;;;;6.72;4.90;;;;;;;22.64;52.64;99625.53;5094536;28;20059;-87
2022/05/15 06:32:08;;;;;;;6.82;5.05;;;;;;;21.36;53.04;99410.09;5094678;28;20118;-86
2022/05/15 06:34:33;;;;;;;7.20;5.10;;;;;;;22.65;53.04;99622.56;5076212;28;20032;-87
2022/05/15 06:36:59;;;;;;;7.32;4.80;;;;;;;22.86;52.88;99637.06;5094210;28;20024;-87
2022/05/15 06:39:24;;;;;;;6.07;4.70;;;;;;;22.39;52.35;99546.19;5061031;28;20048;-86
2022/05/15 06:41:50;;;;;;;6.70;4.60;;;;;;;22.56;51.51;99567.59;5054023;28;20038;-86
2022/05/15 06:44:19;;;;;;;6.78;4.90;;;;;;;22.99;51.44;99622.34;5053367;28;20052;-86
2022/05/15 06:46:45;;;;;;;6.43;4.95;;;;;;;22.20;51.22;99486.53;5052301;28;20390;-87
2022/05/15 06:49:11;;;;;;;9.90;5.38;;;;;;;22.36;50.82;99508.22;5053593;28;20098;-87
2022/05/15 06:51:37;;;;;;;5.47;4.57;;;;;;;22.92;50.93;99603.72;5053791;28;20489;-86
2022/05/15 06:54:03;;;;;;;9.18;5.07;;;;;;;23.11;50.61;99623.84;5053658;28;20024;-86
2022/05/15 06:59:12;;;;;;;5.03;4.22;;;;;;;22.24;49.25;99468.00;5053626;28;20086;-86
2022/05/15 07:01:37;;;;;;;4.78;3.92;;;;;;;22.65;48.73;99549.09;5053069;28;20032;-86
2022/05/15 07:04:03;;;;;;;8.77;4.40;;;;;;;23.02;48.17;99576.06;5052073;28;20032;-86
2022/05/15 07:06:30;;;;;;;6.50;4.47;;;;;;;23.43;47.76;99628.34;5051800;28;20048;-87
2022/05/15 07:08:55;;;;;;;5.57;4.55;;;;;;;23.06;47.78;99577.19;5051933;28;20071;-87
2022/05/15 07:11:20;;;;;;;4.68;3.83;;;;;;;22.76;47.43;99503.16;5053428;28;20064;-86
2022/05/15 07:13:46;;;;;;;6.13;4.15;;;;;;;23.07;47.27;99549.19;5053387;28;20477;-86
2022/05/15 07:16:11;;;;;;;7.15;4.28;;;;;;;23.12;46.85;99557.31;5053440;28;20508;-87
2022/05/15 07:18:38;;;;;;;4.22;3.80;;;;;;;23.68;46.75;99620.44;5053305;28;20533;-86
2022/05/15 07:21:04;;;;;;;4.70;4.28;;;;;;;23.76;47.10;99619.13;5052242;28;20112;-87
2022/05/15 07:23:30;;;;;;;5.97;4.28;;;;;;;23.71;47.14;99595.66;5053371;28;20100;-86
2022/05/15 07:25:55;;;;;;;7.40;4.10;;;;;;;23.17;46.85;99491.88;5053431;28;20032;-87
2022/05/15 07:28:21;;;;;;;6.15;3.47;;;;;;;23.39;46.01;99528.38;5053020;28;20476;-86
2022/05/15 07:30:49;;;;;;;8.68;3.50;;;;;;;23.54;45.06;99538.41;5053141;28;20616;-87
2022/05/15 07:33:21;;;;;;;7.75;3.22;;;;;;;23.37;44.38;99490.09;5052993;28;20032;-87
2022/05/15 07:35:47;;;;;;;5.95;3.47;;;;;;;23.47;43.73;99527.06;5051850;28;20035;-87
2022/05/15 07:38:12;;;;;;;9.30;3.40;;;;;;;23.99;42.61;99570.16;5055440;28;20029;-87
2022/05/15 07:40:37;;;;;;;6.20;2.80;;;;;;;23.91;42.75;99557.19;5075079;28;20028;-87
2022/05/15 07:43:08;;;;;;;5.88;3.05;;;;;;;23.77;41.61;99535.28;5093476;28;20119;-86
2022/05/15 07:45:34;;;;;;;4.45;2.50;;;;;;;24.12;40.86;99603.13;5093114;28;20173;-86
2022/05/15 07:47:59;;;;;;;7.22;2.97;;;;;;;24.27;40.82;99570.81;5093073;28;20536;-87
2022/05/15 07:50:25;;;;;;;5.20;2.80;;;;;;;24.41;39.68;99593.50;5092740;28;20036;-87
2022/05/15 07:52:50;;;;;;;4.55;2.47;;;;;;;24.00;39.22;99509.75;5092870;28;20024;-87
2022/05/15 07:55:16;;;;;;;6.63;3.10;;;;;;;23.92;38.91;99512.16;5092732;28;20032;-87
2022/05/15 07:57:41;;;;;;;5.30;2.78;;;;;;;23.57;38.50;99432.78;5074478;28;20074;-87
2022/05/15 08:00:10;;;;;;;6.05;2.88;;;;;;;23.65;38.21;99428.75;5074498;28;20035;-86
2022/05/15 08:02:36;;;;;;;4.57;3.00;;;;;;;24.72;38.19;99610.56;5092483;28;20020;-86
2022/05/15 08:08:03;;;;;;;4.85;2.72;;;;;;;24.96;38.33;99625.16;5092963;28;20116;-86
2022/05/15 08:10:29;;;;;;;;;;;;;;;24.90;38.33;99620.84;5092891;28;20104;-86
2022/05/15 08:12:55;;;;;;;5.13;2.20;;;;;;;24.45;38.03;99513.63;5091784;28;19951;-86
2022/05/15 08:15:20;;;;;;;4.35;2.92;;;;;;;24.67;37.52;99556.56;5092375;28;20016;-86
2022/05/15 08:17:46;;;;;;;4.18;2.80;;;;;;;24.55;37.33;99494.75;5091911;28;20023;-86
2022/05/15 08:25:40;;;;;;;4.50;2.50;;;;;;;25.64;36.43;99619.44;5092242;28;20039;-86
2022/05/15 08:28:06;;;;;;;8.60;2.95;;;;;;;24.38;36.11;99407.81;5092277;28;20552;-86
2022/05/15 08:30:32;;;;;;;3.90;2.70;;;;;;;24.76;35.91;99446.94;5092327;28;20072;-86
2022/05/15 08:32:58;;;;;;;5.72;2.78;;;;;;;25.90;35.69;99626.41;5092222;28;20020;-86
2022/05/15 08:35:23;;;;;;;5.47;2.78;;;;;;;25.44;35.63;99546.50;5074471;28;20016;-87
2022/05/15 08:37:49;;;;;;;4.07;2.42;;;;;;;26.06;35.73;99629.88;5074628;28;20085;-86
2022/05/15 08:40:18;;;;;;;4.05;2.83;;;;;;;25.69;35.35;99557.25;5091912;28;20044;-87
2022/05/15 08:42:50;;;;;;;6.18;2.70;;;;;;;26.22;35.50;99626.00;5073854;28;20028;-86
2022/05/15 08:45:18;;;;;;;6.05;2.70;;;;;;;26.31;35.03;99634.34;5092207;28;20021;-86
2022/05/15 08:47:53;;;;;;;5.57;2.80;;;;;;;26.10;35.02;99586.84;5092159;28;20027;-87
2022/05/15 08:50:27;;;;;;;3.63;2.45;;;;;;;26.12;35.25;99571.13;5073952;28;20028;-87
2022/05/15 08:53:07;;;;;;;4.88;2.67;;;;;;;26.64;34.06;99640.16;5092327;28;20020;-87
2022/05/15 08:55:44;;;;;;;5.60;2.50;;;;;;;26.77;34.69;99624.09;5092046;28;20016;-86
2022/05/15 08:58:22;;;;;;;5.38;2.92;;;;;;;26.25;34.36;99524.50;5091918;28;20800;-86
2022/05/15 09:00:51;;;;;;;5.20;3.05;;;;;;;26.00;34.04;99457.00;5092010;28;20032;-86
2022/05/15 09:03:23;;;;;;;4.35;2.63;;;;;;;26.70;34.02;99528.78;5091979;28;20067;-86
2022/05/15 09:06:05;;;;;;;5.07;3.00;;;;;;;27.13;33.72;99559.59;5073505;28;20035;-87
2022/05/15 09:09:38;;;;;;;4.38;2.25;;;;;;;27.56;31.55;99626.69;5091983;28;20027;-86
2022/05/15 09:12:14;;;;;;;7.03;2.92;;;;;;;27.63;32.98;99630.69;4990333;28;20113;-86
2022/05/15 09:14:49;;;;;;;4.50;2.33;;;;;;;27.78;32.20;99629.72;4989908;28;20120;-86
2022/05/15 09:17:30;;;;;;;8.77;2.50;;;;;;;27.94;31.31;99639.28;5050236;28;20044;-86
2022/05/15 09:20:03;;;;;;;5.13;2.60;;;;;;;26.96;31.21;99471.66;5091392;28;20027;-86
2022/05/15 09:22:37;;;;;;;5.32;2.10;;;;;;;27.45;31.38;99520.19;5073274;28;20070;-86
2022/05/15 09:25:14;;;;;;;4.13;2.50;;;;;;;27.78;30.75;99532.03;5075342;28;20028;-86
2022/05/15 09:27:55;;;;;;;6.85;2.40;;;;;;;28.17;31.13;99570.56;5077212;28;20412;-86
2022/05/15 09:30:20;;;;;;;8.77;2.53;;;;;;;28.35;31.38;99584.50;5095601;28;20024;-86
2022/05/15 09:32:46;;;;;;;5.22;2.78;;;;;;;28.28;31.37;99551.47;5095872;28;20102;-86
2022/05/15 09:35:35;;;;;;;5.15;2.83;;;;;;;28.91;31.00;99624.41;5095448;28;20035;-86
2022/05/15 09:43:38;;;;;;;6.40;3.60;;;;;;;28.71;30.92;99527.69;5096247;28;20035;-83
2022/05/15 09:46:14;;;;;;;;;;;;;;;29.39;29.64;99619.50;5096250;28;20038;-86
2022/05/15 09:48:52;;;;;;;5.25;2.63;;;;;;;28.96;30.10;99508.25;5077494;28;20108;-86
2022/05/15 09:51:41;;;;;;;7.53;2.83;;;;;;;29.80;29.49;99603.25;5095529;28;20043;-86
2022/05/15 09:54:07;;;;;;;5.30;3.03;;;;;;;29.77;29.71;99573.94;5094011;28;20138;-85
2022/05/15 09:56:35;;;;;;;6.03;3.20;;;;;;;30.14;29.10;99621.09;5095760;28;20020;-86
2022/05/15 09:59:06;;;;;;;4.65;3.20;;;;;;;30.28;28.61;99598.16;5095117;28;20088;-85
2022/05/15 10:01:35;;;;;;;;;;;;;;;30.27;29.36;99595.75;5095184;28;20164;-84
2022/05/15 10:04:06;;;;;;;7.65;2.80;;;;;;;30.33;29.27;99595.31;5076144;28;20316;-84
2022/05/15 10:06:37;;;;;;;4.93;4.22;;;;;;;30.57;29.32;99595.06;5094343;28;20053;-85
2022/05/15 10:09:10;;;;;;;5.78;2.75;;;;;;;30.81;29.26;99588.53;5094348;28;20161;-84
2022/05/15 10:11:50;;;;;;;7.25;5.32;;;;;;;30.15;28.77;99462.84;5094151;28;20031;-85
2022/05/15 10:14:32;;;;;;;5.40;3.08;;;;;;;29.76;28.45;99365.47;5094971;28;20024;-85
2022/05/15 10:16:59;;;;;;;6.28;2.75;;;;;;;31.13;28.15;99569.13;5094723;28;20020;-84
2022/05/15 10:19:32;;;;;;;6.05;2.97;;;;;;;31.38;27.28;99577.81;5094663;28;20157;-85
2022/05/15 10:22:29;;;;;;;5.05;3.28;;;;;;;30.40;26.92;99425.19;5094416;28;20024;-85
2022/05/15 10:25:00;;;;;;;5.75;4.03;;;;;;;30.91;27.67;99477.28;5094844;28;20099;-84
2022/05/15 10:27:30;;;;;;;22.23;2.78;;;;;;;31.19;26.44;99496.19;5095079;28;20072;-84
2022/05/15 10:30:07;;;;;;;5.00;3.55;;;;;;;31.78;25.41;99568.50;5094791;28;20028;-84
2022/05/15 10:32:39;;;;;;;5.10;2.50;;;;;;;31.36;25.38;99555.50;5094837;28;20020;-85
2022/05/15 10:35:07;;;;;;;8.90;4.47;;;;;;;31.67;26.08;99593.66;5094661;28;20095;-84
2022/05/15 10:38:01;;;;;;;5.80;2.38;;;;;;;31.80;25.58;99571.72;5094035;28;20024;-84
2022/05/15 10:40:39;;;;;;;6.55;3.00;;;;;;;31.89;26.14;99571.72;5057521;28;20508;-84
2022/05/15 10:43:34;;;;;;;4.38;2.35;;;;;;;31.79;25.41;99567.38;5094758;28;20027;-85
2022/05/15 10:46:14;;;;;;;7.40;6.68;;;;;;;31.81;25.96;99575.25;5094483;28;20485;-84
2022/05/15 10:49:01;;;;;;;7.55;3.22;;;;;;;32.09;25.89;99573.06;5094590;28;20065;-84
2022/05/15 10:51:48;;;;;;;4.75;3.95;;;;;;;32.32;25.87;99585.50;5094335;28;20085;-84
2022/05/15 10:59:55;;;;;;;8.85;7.60;;;;;;;32.73;25.80;99559.59;5093564;28;19930;-85
2022/05/15 11:02:51;;;;;;;4.38;3.25;;;;;;;32.96;25.18;99552.81;5093351;28;20026;-85
2022/05/15 11:05:19;;;;;;;4.57;3.53;;;;;;;32.90;24.93;99558.78;5074898;28;20473;-86
2022/05/15 11:07:57;;;;;;;3.42;2.72;;;;;;;32.87;24.50;99549.28;5093029;28;20020;-86
2022/05/15 11:10:50;;;;;;;2.58;2.35;;;;;;;32.07;24.71;99414.97;5093294;28;20031;-86
2022/05/15 11:13:19;;;;;;;5.30;3.05;;;;;;;33.14;22.41;99548.09;5093683;28;20023;-85
2022/05/15 11:16:06;;;;;;;5.90;4.45;;;;;;;33.40;21.85;99556.22;5075594;28;20077;-86
2022/05/15 11:18:41;;;;;;;10.40;6.72;;;;;;;33.53;22.42;99554.41;5094123;28;20028;-85
2022/05/15 11:21:12;;;;;;;5.55;3.40;;;;;;;32.62;22.23;99407.94;5094034;28;20058;-86
2022/05/15 11:24:00;;;;;;;5.57;3.75;;;;;;;33.76;21.84;99531.06;5076981;28;20024;-85
2022/05/15 11:26:42;;;;;;;4.32;2.50;;;;;;;33.33;21.61;99460.94;5080478;28;20028;-85
2022/05/15 11:29:13;;;;;;;6.47;3.47;;;;;;;33.15;21.62;99435.56;5109819;28;20016;-86
2022/05/15 11:31:45;;;;;;;5.30;2.50;;;;;;;33.85;20.57;99537.31;5113525;28;20080;-85
2022/05/15 11:34:10;;;;;;;5.32;2.78;;;;;;;32.79;21.16;99373.19;5091155;28;20070;-84
2022/05/15 11:36:48;;;;;;;8.35;7.05;;;;;;;33.96;20.43;99530.31;5093375;28;20117;-84
2022/05/15 11:39:13;;;;;;;4.57;2.53;;;;;;;33.97;20.41;99531.13;5093186;28;20067;-85
2022/05/15 11:42:09;;;;;;;4.95;3.75;;;;;;;33.94;19.80;99527.09;5074787;28;20492;-85
2022/05/15 11:44:41;;;;;;;3.53;2.20;;;;;;;33.45;20.03;99430.13;5092415;28;20031;-85
2022/05/15 11:47:22;;;;;;;5.75;5.07;;;;;;;34.34;20.13;99521.19;5092246;28;20473;-85
2022/05/15 11:50:09;;;;;;;6.53;5.78;;;;;;;34.59;18.82;99531.09;5092253;28;20034;-85
2022/05/15 11:53:02;;;;;;;4.88;3.00;;;;;;;34.01;18.90;99438.91;5092717;28;20039;-84
2022/05/15 11:55:37;;;;;;;3.47;2.40;;;;;;;34.66;18.81;99516.84;5092419;28;20026;-85
2022/05/15 11:58:26;;;;;;;5.80;2.17;;;;;;;34.67;19.13;99512.97;5092755;28;20027;-85
2022/05/15 12:01:03;;;;;;;4.50;2.08;;;;;;;34.29;19.41;99442.69;5093013;28;20020;-85
2022/05/15 12:03:28;;;;;;;5.22;2.88;;;;;;;34.64;19.83;99502.66;5093276;28;20416;-85
2022/05/15 12:06:09;;;;;;;3.03;1.88;;;;;;;34.68;19.58;99482.44;5093038;28;20020;-84
2022/05/15 12:08:39;;;;;;;6.00;4.32;;;;;;;34.89;19.61;99501.59;5075218;28;20471;-84
2022/05/15 12:11:31;;;;;;;6.25;5.25;;;;;;;35.03;19.32;99507.59;5094263;28;20504;-85